Time;durP1;ratioP1;P1;durP2;ratioP2;P2;SDS_P1;SDS_P2;PMS_P1;PMS_P2;Temp;Humidity;BMP_temperature;BMP_pressure;BME280_temperature;BME280_humidity;BME280_pressure;Samples;Min_cycle;Max_cycle;Signal;HPM_P1;HPM_P2
2021/01/12 00:02:23;;;;;;;2.65;2.03;;;;;;;11.43;41.09;100250.56;4885104;28;97855;-62
2021/01/12 00:04:49;;;;;;;3.20;2.50;;;;;;;11.43;40.98;100242.47;4885431;28;100128;-62
2021/01/12 00:07:21;;;;;;;2.38;2.17;;;;;;;11.42;41.17;100230.06;4890362;28;98562;-62
2021/01/12 00:09:47;;;;;;;3.13;2.72;;;;;;;11.40;41.07;100226.84;4883378;28;98025;-62
2021/01/12 00:12:13;;;;;;;3.38;2.45;;;;;;;11.39;40.53;100224.41;4890168;28;97799;-62
2021/01/12 00:14:39;;;;;;;4.15;2.60;;;;;;;11.38;40.96;100210.13;4885603;28;98235;-61
2021/01/12 00:17:07;;;;;;;3.28;2.60;;;;;;;11.38;41.23;100203.91;4884532;28;98410;-62
2021/01/12 00:19:34;;;;;;;3.22;2.67;;;;;;;11.39;41.07;100203.63;4885306;28;97941;-63
2021/01/12 00:22:00;;;;;;;3.00;2.70;;;;;;;11.37;40.91;100202.31;4881784;28;111090;-62
2021/01/12 00:24:26;;;;;;;3.45;2.80;;;;;;;11.38;40.85;100196.63;4882349;28;99057;-62
2021/01/12 00:26:53;;;;;;;4.35;2.88;;;;;;;11.36;41.02;100185.31;4885271;28;98572;-62
2021/01/12 00:29:19;;;;;;;3.85;3.17;;;;;;;11.29;40.67;100182.13;4884083;28;98077;-62
2021/01/12 00:31:46;;;;;;;4.10;3.17;;;;;;;11.31;40.57;100183.44;4884248;28;117321;-62
2021/01/12 00:34:12;;;;;;;3.72;3.17;;;;;;;11.34;41.07;100181.28;4875884;28;98994;-62
2021/01/12 00:36:40;;;;;;;3.78;3.10;;;;;;;11.35;40.30;100180.19;4884933;28;98095;-62
2021/01/12 00:39:07;;;;;;;4.53;3.63;;;;;;;11.31;40.71;100166.44;4876733;28;98616;-62
2021/01/12 00:41:34;;;;;;;3.50;3.17;;;;;;;11.29;40.82;100168.63;4885126;28;98019;-62
2021/01/12 00:44:00;;;;;;;3.72;3.28;;;;;;;11.30;40.60;100160.25;4882241;28;108047;-61
2021/01/12 00:46:26;;;;;;;3.60;2.95;;;;;;;11.30;40.52;100162.94;4884296;28;99137;-62
2021/01/12 00:48:52;;;;;;;4.60;3.28;;;;;;;11.29;41.26;100155.13;4876430;28;98312;-62
2021/01/12 00:51:18;;;;;;;4.38;3.50;;;;;;;11.32;40.67;100151.88;4883880;28;116665;-62
2021/01/12 00:53:44;;;;;;;4.82;3.58;;;;;;;11.30;41.22;100154.84;4875897;28;128229;-62
2021/01/12 00:56:15;;;;;;;4.43;3.40;;;;;;;11.31;40.82;100145.66;4902280;28;127920;-62
2021/01/12 00:58:41;;;;;;;3.80;3.30;;;;;;;11.31;40.78;100144.84;4895463;28;116768;-62
2021/01/12 01:01:07;;;;;;;4.07;3.25;;;;;;;11.32;40.80;100127.59;4901677;28;115874;-62
2021/01/12 01:03:33;;;;;;;3.72;3.33;;;;;;;11.33;40.92;100123.00;4894764;28;116328;-62
2021/01/12 01:06:04;;;;;;;3.70;3.10;;;;;;;11.31;41.00;100124.06;4896649;28;99075;-62
2021/01/12 01:08:30;;;;;;;4.25;3.30;;;;;;;11.32;41.36;100116.81;4901024;28;115621;-62
2021/01/12 01:10:56;;;;;;;3.88;3.10;;;;;;;11.31;40.86;100115.97;4903079;28;115942;-62
2021/01/12 01:13:24;;;;;;;4.28;3.42;;;;;;;11.31;41.16;100120.56;4895335;28;128501;-62
2021/01/12 01:15:50;;;;;;;4.72;3.45;;;;;;;11.30;40.97;100119.78;4903340;28;98296;-62
2021/01/12 01:18:16;;;;;;;3.83;3.30;;;;;;;11.29;41.11;100109.28;4894900;28;127733;-62
2021/01/12 01:20:42;;;;;;;4.88;3.60;;;;;;;11.28;41.76;100108.47;4903145;28;116946;-62
2021/01/12 01:23:08;;;;;;;4.32;3.83;;;;;;;11.28;41.65;100102.28;4894440;28;115255;-62
2021/01/12 01:25:34;;;;;;;4.53;3.35;;;;;;;11.30;41.61;100100.88;4901046;28;114766;-62
2021/01/12 01:28:00;;;;;;;3.92;3.38;;;;;;;11.33;41.15;100101.41;4894662;28;128340;-62
2021/01/12 01:30:26;;;;;;;4.20;3.13;;;;;;;11.34;41.56;100084.13;4904258;28;97834;-62
2021/01/12 01:32:52;;;;;;;4.43;3.25;;;;;;;11.34;41.71;100076.03;4877327;28;126489;-62
2021/01/12 01:35:18;;;;;;;4.57;3.47;;;;;;;11.36;41.39;100076.56;4883524;28;127569;-63
2021/01/12 01:37:44;;;;;;;3.83;2.92;;;;;;;11.35;41.31;100075.75;4896480;28;127715;-62
2021/01/12 01:40:10;;;;;;;4.45;3.50;;;;;;;11.34;41.71;100079.53;4898210;28;117443;-62
2021/01/12 01:42:37;;;;;;;4.28;3.40;;;;;;;11.34;41.87;100070.66;4883952;28;117614;-62
2021/01/12 01:45:08;;;;;;;4.60;3.03;;;;;;;11.37;41.82;100068.19;4901263;28;99373;-63
2021/01/12 01:47:34;;;;;;;3.97;3.30;;;;;;;11.34;42.25;100062.56;4885241;28;98141;-62
2021/01/12 01:50:02;;;;;;;3.95;3.10;;;;;;;11.34;42.38;100057.94;4903486;28;97840;-62
2021/01/12 01:52:28;;;;;;;3.75;3.10;;;;;;;11.34;41.71;100060.66;4902269;28;98727;-62
2021/01/12 01:54:56;;;;;;;4.22;2.95;;;;;;;11.35;42.33;100058.75;4900667;28;117103;-62
2021/01/12 01:57:22;;;;;;;3.70;3.10;;;;;;;11.36;42.21;100047.69;4900364;28;115916;-62
2021/01/12 01:59:48;;;;;;;3.50;3.00;;;;;;;11.37;41.87;100062.00;4901912;28;115794;-62
2021/01/12 02:02:14;;;;;;;3.58;3.22;;;;;;;11.34;41.77;100052.56;4900716;28;125659;-62
2021/01/12 02:04:41;;;;;;;3.88;3.20;;;;;;;11.36;42.34;100046.88;4901816;28;129540;-62
2021/01/12 02:07:07;;;;;;;5.18;3.35;;;;;;;11.41;42.45;100041.44;4883595;28;114136;-62
2021/01/12 02:09:49;;;;;;;5.07;3.33;;;;;;;11.39;42.67;100032.81;4884769;28;116989;-62
2021/01/12 02:12:54;;;;;;;4.22;3.00;;;;;;;11.39;42.64;100030.91;4884197;28;98805;-62
2021/01/12 02:15:20;;;;;;;4.30;3.05;;;;;;;11.40;42.61;100023.66;4884270;28;98435;-62
2021/01/12 02:17:47;;;;;;;3.28;2.83;;;;;;;11.43;42.45;100031.97;4899801;28;115247;-62
2021/01/12 02:20:14;;;;;;;4.50;3.30;;;;;;;11.42;42.61;100026.84;4884581;28;98026;-62
2021/01/12 02:22:43;;;;;;;4.25;3.20;;;;;;;11.47;42.78;100024.91;4899800;28;98966;-62
2021/01/12 02:25:09;;;;;;;4.15;3.10;;;;;;;11.47;42.78;100016.00;4884800;28;98990;-62
2021/01/12 02:27:35;;;;;;;4.57;3.45;;;;;;;11.46;42.92;100012.50;4883308;28;126451;-62
2021/01/12 02:30:02;;;;;;;4.18;3.40;;;;;;;11.49;42.60;100008.44;4901972;28;118286;-62
2021/01/12 02:32:28;;;;;;;4.35;3.13;;;;;;;11.51;42.70;100004.38;4901111;28;119709;-62
2021/01/12 02:34:54;;;;;;;4.45;3.13;;;;;;;11.54;43.22;100006.50;4901854;28;127309;-62
2021/01/12 02:37:21;;;;;;;5.20;3.03;;;;;;;11.56;42.68;99995.44;4883155;28;107407;-62
2021/01/12 02:39:59;;;;;;;3.72;2.90;;;;;;;11.51;43.22;99979.25;4902537;28;98201;-62
2021/01/12 02:42:26;;;;;;;4.30;2.95;;;;;;;11.56;42.79;99976.53;4899509;28;98245;-62
2021/01/12 02:44:52;;;;;;;3.53;2.80;;;;;;;11.57;42.99;99974.63;4884287;28;117922;-62
2021/01/12 02:47:18;;;;;;;4.72;3.47;;;;;;;11.56;43.64;99965.75;4882636;28;99616;-62
2021/01/12 02:49:44;;;;;;;4.25;3.38;;;;;;;11.58;43.59;99960.84;4901005;28;97951;-62
2021/01/12 02:52:13;;;;;;;3.83;3.10;;;;;;;11.61;43.21;99956.78;4900494;28;128930;-62
2021/01/12 02:54:42;;;;;;;4.35;3.17;;;;;;;11.59;43.38;99957.03;4895526;28;98942;-62
2021/01/12 02:57:09;;;;;;;3.80;3.15;;;;;;;11.60;43.15;99955.19;4864316;28;114678;-62
2021/01/12 02:59:35;;;;;;;4.20;3.33;;;;;;;11.59;43.46;99950.84;4877798;28;97894;-62
2021/01/12 03:02:01;;;;;;;4.35;3.10;;;;;;;11.57;43.17;99932.25;4878994;28;105559;-62
2021/01/12 03:04:27;;;;;;;3.70;3.00;;;;;;;11.55;42.99;99929.84;4882856;28;98408;-62
2021/01/12 03:06:53;;;;;;;4.22;3.33;;;;;;;11.60;42.89;99926.28;4881332;28;126923;-62
2021/01/12 03:09:19;;;;;;;4.25;3.28;;;;;;;11.60;43.33;99922.78;4882588;28;118312;-62
2021/01/12 03:11:51;;;;;;;4.18;3.50;;;;;;;11.58;43.74;99920.34;4882001;28;98227;-62
2021/01/12 03:14:17;;;;;;;4.82;3.70;;;;;;;11.60;43.45;99920.88;4881631;28;120273;-62
2021/01/12 03:16:43;;;;;;;4.63;3.75;;;;;;;11.59;43.17;99907.66;4882635;28;98227;-62
2021/01/12 03:19:09;;;;;;;4.68;3.50;;;;;;;11.62;43.31;99909.78;4882812;28;98096;-62
2021/01/12 03:21:35;;;;;;;4.75;3.55;;;;;;;11.62;43.65;99899.00;4882909;28;99179;-62
2021/01/12 03:24:01;;;;;;;3.72;3.17;;;;;;;11.65;43.31;99898.41;4881509;28;128021;-62
2021/01/12 03:26:27;;;;;;;3.85;3.45;;;;;;;11.63;43.33;99884.41;4883708;28;127600;-62
2021/01/12 03:28:53;;;;;;;4.60;3.28;;;;;;;11.64;43.83;99891.41;4884070;28;117238;-62
2021/01/12 03:31:19;;;;;;;3.90;3.33;;;;;;;11.62;43.62;99880.91;4884662;28;128386;-62
2021/01/12 03:33:45;;;;;;;5.03;3.80;;;;;;;11.62;43.48;99880.91;4885326;28;128179;-62
2021/01/12 03:36:11;;;;;;;4.90;3.22;;;;;;;11.63;43.60;99881.69;4885243;28;127705;-62
2021/01/12 03:38:37;;;;;;;4.50;3.80;;;;;;;11.63;43.88;99871.72;4885668;28;109344;-62
2021/01/12 03:41:04;;;;;;;3.78;3.38;;;;;;;11.62;44.27;99880.91;4866440;28;126463;-62
2021/01/12 03:43:30;;;;;;;4.57;3.63;;;;;;;11.63;44.14;99882.53;4866991;28;117525;-62
2021/01/12 03:45:56;;;;;;;3.60;3.20;;;;;;;11.61;43.87;99876.59;4885262;28;127985;-62
2021/01/12 03:48:22;;;;;;;4.32;3.50;;;;;;;11.62;44.22;99872.00;4884920;28;97829;-62
2021/01/12 03:50:49;;;;;;;5.85;3.60;;;;;;;11.62;44.02;99880.09;4885704;28;98271;-63
2021/01/12 03:53:16;;;;;;;4.00;3.25;;;;;;;11.61;44.41;99876.59;4883706;28;98350;-62
2021/01/12 03:55:42;;;;;;;4.57;3.70;;;;;;;11.60;44.11;99871.50;4899266;28;98395;-62
2021/01/12 03:58:08;;;;;;;4.75;3.40;;;;;;;11.58;44.78;99865.56;4902626;28;100259;-62
2021/01/12 04:00:34;;;;;;;4.38;3.40;;;;;;;11.54;44.95;99868.03;4885612;28;127310;-62
2021/01/12 04:03:00;;;;;;;4.40;3.30;;;;;;;11.54;45.45;99862.63;4903404;28;115585;-62
2021/01/12 04:05:28;;;;;;;4.40;3.20;;;;;;;11.51;45.17;99864.03;4904407;28;110994;-62
2021/01/12 04:07:56;;;;;;;4.43;3.40;;;;;;;11.52;45.00;99859.44;4904302;28;97884;-62
2021/01/12 04:10:22;;;;;;;4.45;3.28;;;;;;;11.50;45.66;99864.31;4904725;28;99002;-62
2021/01/12 04:12:48;;;;;;;4.30;3.13;;;;;;;11.55;45.67;99864.25;4886366;28;98552;-62
2021/01/12 04:15:15;;;;;;;4.10;3.13;;;;;;;11.49;46.10;99858.09;4904700;28;98170;-62
2021/01/12 04:17:41;;;;;;;3.72;3.22;;;;;;;11.48;45.90;99861.91;4904540;28;98201;-63
2021/01/12 04:20:08;;;;;;;4.25;3.08;;;;;;;11.46;46.25;99852.47;4904022;28;128353;-62
2021/01/12 04:22:35;;;;;;;4.13;3.20;;;;;;;11.48;46.73;99845.72;4904094;28;114410;-63
2021/01/12 04:25:02;;;;;;;4.35;3.22;;;;;;;11.44;46.75;99846.56;4902364;28;97847;-63
2021/01/12 04:27:28;;;;;;;4.03;3.15;;;;;;;11.42;46.30;99840.66;4903601;28;111092;-63
2021/01/12 04:29:54;;;;;;;4.28;3.08;;;;;;;11.42;47.19;99843.34;4903516;28;128114;-63
2021/01/12 04:32:20;;;;;;;3.97;3.17;;;;;;;11.41;47.10;99833.66;4903562;28;127994;-63
2021/01/12 04:34:46;;;;;;;3.75;3.38;;;;;;;11.39;47.14;99835.81;4903714;28;128218;-63
2021/01/12 04:37:12;;;;;;;3.92;3.20;;;;;;;11.36;47.15;99833.69;4905149;28;114934;-63
2021/01/12 04:39:38;;;;;;;4.38;3.45;;;;;;;11.39;47.58;99833.13;4903307;28;98289;-63
2021/01/12 04:42:05;;;;;;;4.00;3.15;;;;;;;11.37;47.63;99835.31;4903094;28;124544;-63
2021/01/12 04:44:31;;;;;;;4.78;3.50;;;;;;;11.36;47.02;99828.28;4905244;28;113718;-63
2021/01/12 04:46:57;;;;;;;4.40;3.10;;;;;;;11.33;47.88;99829.69;4901751;28;116570;-63
2021/01/12 04:49:23;;;;;;;4.70;3.25;;;;;;;11.34;47.65;99823.19;4884790;28;127684;-63
2021/01/12 04:51:49;;;;;;;4.45;3.38;;;;;;;11.31;47.34;99815.66;4902653;28;127153;-63
2021/01/12 04:54:15;;;;;;;3.80;2.95;;;;;;;11.33;47.44;99812.72;4900909;28;125997;-63
2021/01/12 04:56:42;;;;;;;4.53;3.00;;;;;;;11.33;47.82;99810.00;4903317;28;115750;-62
2021/01/12 04:59:08;;;;;;;4.15;3.55;;;;;;;11.37;47.53;99808.34;4886412;28;119303;-63
2021/01/12 05:01:34;;;;;;;4.78;3.38;;;;;;;11.34;48.16;99790.03;4902210;28;127847;-63
2021/01/12 05:04:04;;;;;;;4.57;3.33;;;;;;;11.29;47.81;99797.09;4902467;28;128080;-63
2021/01/12 05:06:30;;;;;;;4.63;3.55;;;;;;;11.30;47.92;99785.19;4903359;28;97917;-63
2021/01/12 05:08:56;;;;;;;3.92;3.33;;;;;;;11.31;47.61;99778.69;4904352;28;97818;-63
2021/01/12 05:11:33;;;;;;;4.10;3.50;;;;;;;11.27;47.69;99779.56;4902993;28;113240;-62
2021/01/12 05:14:09;;;;;;;4.38;3.25;;;;;;;11.28;48.34;99775.81;4903338;28;97999;-63
2021/01/12 05:16:53;;;;;;;3.60;3.13;;;;;;;11.22;48.41;99764.25;4886844;28;97977;-63
2021/01/12 05:19:23;;;;;;;4.43;3.47;;;;;;;11.25;48.34;99765.59;4904174;28;98307;-63
2021/01/12 05:21:49;;;;;;;4.53;3.40;;;;;;;11.24;48.20;99764.78;4901718;28;98892;-63
2021/01/12 05:24:20;;;;;;;3.92;3.03;;;;;;;11.28;47.87;99767.72;4885224;28;107090;-63
2021/01/12 05:26:46;;;;;;;4.43;3.55;;;;;;;11.29;48.28;99762.00;4904723;28;97942;-63
2021/01/12 05:29:12;;;;;;;3.95;3.08;;;;;;;11.25;48.08;99762.88;4903235;28;98473;-64
2021/01/12 05:31:39;;;;;;;4.35;2.95;;;;;;;11.26;48.00;99770.69;4901996;28;128397;-63
2021/01/12 05:34:07;;;;;;;3.83;2.97;;;;;;;11.25;48.77;99750.19;4902862;28;98711;-63
2021/01/12 05:36:50;;;;;;;4.15;3.20;;;;;;;11.26;48.18;99751.00;4903872;28;98053;-63
2021/01/12 05:39:20;;;;;;;3.20;2.85;;;;;;;11.31;47.84;99749.03;4887562;28;98491;-63
2021/01/12 05:41:48;;;;;;;3.88;3.05;;;;;;;11.36;48.19;99739.25;4902788;28;99346;-64
2021/01/12 05:44:18;;;;;;;3.22;2.70;;;;;;;11.36;48.45;99740.09;4902406;28;120079;-64
2021/01/12 05:46:46;;;;;;;3.38;2.83;;;;;;;11.37;47.79;99732.78;4903190;28;104263;-63
2021/01/12 05:49:12;;;;;;;4.55;3.35;;;;;;;11.36;47.92;99741.94;4883976;28;121978;-64
2021/01/12 05:51:49;;;;;;;4.00;3.17;;;;;;;11.40;48.10;99734.91;4901630;28;98501;-64
2021/01/12 05:54:32;;;;;;;3.85;3.30;;;;;;;11.41;47.75;99717.63;4900838;28;117779;-64
2021/01/12 05:57:00;;;;;;;3.50;2.92;;;;;;;11.45;48.12;99721.34;4884447;28;98090;-64
2021/01/12 05:59:31;;;;;;;3.63;3.08;;;;;;;11.42;48.42;99725.41;4902954;28;99750;-63
2021/01/12 06:02:02;;;;;;;4.10;3.15;;;;;;;11.44;48.35;99712.44;4903323;28;98942;-64
2021/01/12 06:04:28;;;;;;;3.27;2.83;;;;;;;11.39;48.11;99719.78;4902546;28;115955;-64
2021/01/12 06:06:56;;;;;;;4.00;3.03;;;;;;;11.39;47.97;99703.59;4902802;28;117205;-64
2021/01/12 06:09:23;;;;;;;3.90;3.13;;;;;;;11.40;48.63;99700.63;4902668;28;99044;-64
2021/01/12 06:11:51;;;;;;;3.80;2.97;;;;;;;11.39;48.53;99690.91;4884278;28;98450;-64
2021/01/12 06:14:22;;;;;;;3.60;3.05;;;;;;;11.36;48.46;99701.47;4904028;28;98666;-64
2021/01/12 06:16:49;;;;;;;4.30;2.90;;;;;;;11.37;48.45;99697.72;4884995;28;97891;-64
2021/01/12 06:19:17;;;;;;;3.60;2.88;;;;;;;11.36;48.66;99687.97;4902562;28;98342;-64
2021/01/12 06:21:55;;;;;;;3.38;2.80;;;;;;;11.36;48.14;99686.13;4900461;28;99041;-64
2021/01/12 06:24:37;;;;;;;3.45;2.92;;;;;;;11.33;48.70;99683.19;4902726;28;99488;-64
2021/01/12 06:27:25;;;;;;;3.83;3.03;;;;;;;11.33;48.55;99675.09;4902102;28;97624;-64
2021/01/12 06:29:51;;;;;;;3.70;3.00;;;;;;;11.31;48.58;99684.25;4902943;28;98416;-64
2021/01/12 06:32:22;;;;;;;4.20;3.25;;;;;;;11.31;48.22;99683.47;4902555;28;98680;-64
2021/01/12 06:34:53;;;;;;;4.20;3.15;;;;;;;11.33;48.86;99667.00;4902562;28;98193;-64
2021/01/12 06:37:20;;;;;;;4.13;3.45;;;;;;;11.32;48.22;99674.31;4886017;28;98178;-64
2021/01/12 06:39:47;;;;;;;3.83;3.15;;;;;;;11.38;48.89;99670.41;4902782;28;98317;-64
2021/01/12 06:42:19;;;;;;;4.72;3.42;;;;;;;11.34;48.65;99674.78;4902030;28;98513;-64
2021/01/12 06:44:45;;;;;;;3.88;3.20;;;;;;;11.33;48.33;99662.41;4901743;28;115891;-64
2021/01/12 06:47:11;;;;;;;4.18;3.42;;;;;;;11.30;48.88;99658.38;4883634;28;117184;-64
2021/01/12 06:49:37;;;;;;;3.90;3.10;;;;;;;11.31;48.78;99646.50;4902364;28;98823;-64
2021/01/12 06:52:11;;;;;;;4.28;3.20;;;;;;;11.29;48.85;99648.69;4901610;28;114053;-65
2021/01/12 06:54:43;;;;;;;4.43;2.97;;;;;;;11.30;48.59;99647.59;4882633;28;98312;-64
2021/01/12 06:57:10;;;;;;;4.33;3.23;;;;;;;11.27;48.66;99648.16;4882674;28;98233;-64
2021/01/12 06:59:43;;;;;;;3.65;2.97;;;;;;;11.29;48.52;99650.59;4884126;28;98421;-64
2021/01/12 07:02:20;;;;;;;4.05;3.20;;;;;;;11.30;49.29;99642.19;4884535;28;98513;-65
2021/01/12 07:04:57;;;;;;;3.05;2.58;;;;;;;11.26;49.13;99637.69;4886524;28;98314;-64
2021/01/12 07:07:24;;;;;;;3.28;2.78;;;;;;;11.30;48.99;99636.00;4886242;28;97760;-65
2021/01/12 07:09:56;;;;;;;3.92;3.10;;;;;;;11.26;48.66;99637.69;4886567;28;99040;-65
2021/01/12 07:12:22;;;;;;;3.65;2.88;;;;;;;11.25;49.22;99628.00;4885406;28;99072;-64
2021/01/12 07:14:56;;;;;;;3.50;2.75;;;;;;;11.28;48.86;99633.63;4897153;28;97835;-64
2021/01/12 07:17:28;;;;;;;3.53;2.75;;;;;;;11.28;49.40;99622.81;4905575;28;97932;-64
2021/01/12 07:20:12;;;;;;;3.35;2.70;;;;;;;11.24;49.42;99634.50;4905437;28;97699;-64
2021/01/12 07:22:40;;;;;;;3.65;2.80;;;;;;;11.25;48.78;99618.00;4882916;28;115286;-64
2021/01/12 07:25:11;;;;;;;2.95;2.63;;;;;;;11.23;49.37;99630.97;4869137;28;97849;-64
2021/01/12 07:27:37;;;;;;;3.22;2.75;;;;;;;11.24;49.03;99621.81;4884887;28;98197;-64
2021/01/12 07:30:08;;;;;;;3.33;2.55;;;;;;;11.22;49.47;99626.66;4903591;28;112635;-64
2021/01/12 07:32:38;;;;;;;3.00;2.58;;;;;;;11.17;49.72;99621.34;4904502;28;99414;-64
2021/01/12 07:35:11;;;;;;;3.30;2.60;;;;;;;11.17;48.85;99602.47;4905471;28;98185;-65
2021/01/12 07:37:41;;;;;;;3.35;2.50;;;;;;;11.15;49.17;99611.94;4904340;28;112192;-64
2021/01/12 07:40:09;;;;;;;3.45;2.50;;;;;;;11.14;49.09;99613.03;4905233;28;98988;-64
2021/01/12 07:42:45;;;;;;;3.08;2.33;;;;;;;11.14;49.60;99619.22;4904496;28;98384;-64
2021/01/12 07:45:12;;;;;;;2.90;2.30;;;;;;;11.16;49.23;99608.13;4887088;28;99052;-64
2021/01/12 07:47:38;;;;;;;2.55;2.15;;;;;;;11.17;49.34;99607.88;4904521;28;100054;-65
2021/01/12 07:50:06;;;;;;;2.55;2.20;;;;;;;11.21;49.37;99608.88;4905293;28;128125;-65
2021/01/12 07:52:32;;;;;;;2.25;2.05;;;;;;;11.19;49.39;99605.66;4902690;28;99155;-64
2021/01/12 07:54:59;;;;;;;2.95;2.15;;;;;;;11.21;49.63;99602.69;4886140;28;127485;-65
2021/01/12 07:57:25;;;;;;;2.70;1.75;;;;;;;11.22;49.70;99601.59;4903731;28;116317;-65
2021/01/12 07:59:51;;;;;;;2.38;1.80;;;;;;;11.23;50.02;99590.50;4884498;28;127842;-65
2021/01/12 08:02:17;;;;;;;4.32;2.10;;;;;;;11.23;49.61;99585.09;4901243;28;99128;-65
2021/01/12 08:04:43;;;;;;;2.67;1.88;;;;;;;11.23;49.64;99592.41;4901875;28;118616;-65
2021/01/12 08:07:09;;;;;;;2.10;1.67;;;;;;;11.25;50.27;99591.03;4918228;28;117106;-65
2021/01/12 08:09:35;;;;;;;1.88;1.60;;;;;;;11.24;50.23;99594.81;4904767;28;99140;-65
2021/01/12 08:12:04;;;;;;;2.75;1.63;;;;;;;11.27;49.79;99593.41;4902297;28;98291;-64
2021/01/12 08:14:30;;;;;;;2.00;1.70;;;;;;;11.27;49.99;99591.50;4889285;28;97875;-65
2021/01/12 08:16:57;;;;;;;2.10;1.70;;;;;;;11.27;49.74;99582.63;4905552;28;98075;-65
2021/01/12 08:19:25;;;;;;;2.25;1.70;;;;;;;11.25;49.75;99579.44;4904232;28;98692;-65
2021/01/12 08:21:51;;;;;;;2.00;1.60;;;;;;;11.27;49.89;99575.31;4904118;28;98596;-65
2021/01/12 08:24:25;;;;;;;2.05;1.45;;;;;;;11.30;50.42;99566.66;4904649;28;97985;-65
2021/01/12 08:26:51;;;;;;;1.92;1.67;;;;;;;11.31;49.94;99570.94;4903919;28;99295;-65
2021/01/12 08:29:25;;;;;;;1.95;1.50;;;;;;;11.29;50.74;99567.75;4904278;28;98373;-65
2021/01/12 08:32:00;;;;;;;1.88;1.33;;;;;;;11.33;50.77;99570.69;4902238;28;99104;-65
2021/01/12 08:34:26;;;;;;;2.15;1.40;;;;;;;11.35;50.72;99564.97;4904263;28;97872;-65
2021/01/12 08:36:53;;;;;;;1.83;1.30;;;;;;;11.34;50.71;99566.88;4902406;28;98019;-64
2021/01/12 08:39:19;;;;;;;1.75;1.42;;;;;;;11.34;50.68;99566.88;4885256;28;116497;-64
2021/01/12 08:41:45;;;;;;;1.95;1.40;;;;;;;11.33;50.62;99569.88;4868766;28;116088;-64
2021/01/12 08:44:12;;;;;;;1.55;1.10;;;;;;;11.35;51.13;99564.97;4870930;28;98239;-64
2021/01/12 08:46:38;;;;;;;1.70;1.25;;;;;;;11.33;51.14;99553.69;4886441;28;97880;-64
2021/01/12 08:49:04;;;;;;;1.90;1.20;;;;;;;11.34;51.15;99564.19;4903070;28;98898;-64
2021/01/12 08:51:32;;;;;;;1.65;1.20;;;;;;;11.30;51.11;99552.38;4903503;28;98810;-64
2021/01/12 08:53:59;;;;;;;1.65;1.05;;;;;;;11.33;51.26;99548.28;4904450;28;98264;-64
2021/01/12 08:56:25;;;;;;;1.70;1.02;;;;;;;11.33;51.25;99554.47;4903596;28;97651;-64
2021/01/12 08:59:05;;;;;;;1.70;1.20;;;;;;;11.29;51.55;99545.38;4917973;28;98325;-64
2021/01/12 09:01:31;;;;;;;1.70;0.98;;;;;;;11.26;51.78;99549.44;4903089;28;98267;-64
2021/01/12 09:04:10;;;;;;;1.50;1.10;;;;;;;11.26;51.38;99535.97;4901908;28;98187;-64
2021/01/12 09:06:36;;;;;;;1.52;1.05;;;;;;;11.26;51.54;99538.66;4917734;28;98185;-64
2021/01/12 09:09:07;;;;;;;1.48;1.00;;;;;;;11.30;51.78;99539.69;4904488;28;99040;-64
2021/01/12 09:11:37;;;;;;;1.33;0.88;;;;;;;11.27;52.44;99536.75;4903235;28;98721;-64
2021/01/12 09:14:07;;;;;;;1.30;0.80;;;;;;;11.27;51.94;99521.38;4917538;28;98050;-64
2021/01/12 09:16:34;;;;;;;1.40;0.88;;;;;;;11.29;52.53;99524.59;4903284;28;97671;-64
2021/01/12 09:19:10;;;;;;;1.33;1.00;;;;;;;11.29;52.07;99521.09;4903592;28;98376;-64
2021/01/12 09:21:36;;;;;;;1.70;1.00;;;;;;;11.30;52.26;99525.38;4915248;28;118372;-64
2021/01/12 09:24:02;;;;;;;1.50;0.68;;;;;;;11.30;52.06;99520.78;4916962;28;127660;-64
2021/01/12 09:26:28;;;;;;;1.33;0.77;;;;;;;11.29;51.91;99516.50;4903712;28;106727;-64
2021/01/12 09:28:54;;;;;;;1.15;0.70;;;;;;;11.29;52.17;99516.50;4902280;28;105355;-64
2021/01/12 09:31:21;;;;;;;1.55;1.00;;;;;;;11.38;52.55;99523.91;4917267;28;106246;-64
2021/01/12 09:33:54;;;;;;;1.50;0.77;;;;;;;11.31;52.13;99508.09;4903981;28;98662;-64
2021/01/12 09:36:21;;;;;;;1.50;0.90;;;;;;;11.32;52.67;99515.13;4901212;28;97784;-64
2021/01/12 09:38:51;;;;;;;1.48;0.90;;;;;;;11.31;52.69;99506.19;4903334;28;98511;-64
2021/01/12 09:41:22;;;;;;;1.60;0.85;;;;;;;11.32;52.94;99509.72;4902936;28;118329;-64
2021/01/12 09:43:48;;;;;;;1.20;0.75;;;;;;;11.31;52.78;99508.91;4903026;28;98575;-64
2021/01/12 09:46:15;;;;;;;1.42;0.80;;;;;;;11.35;52.70;99500.22;4892717;28;98113;-64
2021/01/12 09:48:41;;;;;;;1.75;0.77;;;;;;;11.34;53.18;99496.72;4905687;28;99089;-64
2021/01/12 09:51:10;;;;;;;1.42;0.93;;;;;;;11.38;52.71;99499.63;4902935;28;98415;-64
2021/01/12 09:53:37;;;;;;;1.70;0.75;;;;;;;11.42;53.13;99485.25;4916742;28;112510;-64
2021/01/12 09:56:03;;;;;;;1.60;0.80;;;;;;;11.38;53.02;99489.63;4919770;28;108613;-63
2021/01/12 09:58:29;;;;;;;1.85;0.88;;;;;;;11.42;53.11;99490.66;4900855;28;99390;-64
2021/01/12 10:00:56;;;;;;;1.45;0.77;;;;;;;11.42;53.42;99485.25;4920548;28;99037;-64
2021/01/12 10:03:22;;;;;;;1.08;0.60;;;;;;;11.41;53.23;99480.97;4914277;28;98049;-64
2021/01/12 10:05:48;;;;;;;1.73;0.63;;;;;;;11.43;53.11;99475.25;4922350;28;100290;-63
2021/01/12 10:08:14;;;;;;;1.27;0.50;;;;;;;11.45;53.05;99476.56;4914598;28;97819;-63
2021/01/12 10:10:41;;;;;;;1.23;0.40;;;;;;;11.48;53.00;99464.38;4919759;28;99156;-63
2021/01/12 10:13:07;;;;;;;0.90;0.43;;;;;;;11.47;53.08;99460.88;4908845;28;98140;-63
2021/01/12 10:15:33;;;;;;;1.35;0.50;;;;;;;11.47;53.10;99462.78;4902667;28;116912;-63
2021/01/12 10:17:59;;;;;;;0.80;0.40;;;;;;;11.49;52.89;99455.19;4902573;28;98198;-63
2021/01/12 10:20:25;;;;;;;1.00;0.45;;;;;;;11.47;53.62;99455.47;4905690;28;114809;-63
2021/01/12 10:22:51;;;;;;;1.10;0.50;;;;;;;11.46;53.45;99453.06;4914892;28;120582;-63
2021/01/12 10:25:17;;;;;;;0.90;0.40;;;;;;;11.46;53.69;99442.28;4920846;28;116580;-63
2021/01/12 10:27:45;;;;;;;1.10;0.50;;;;;;;11.51;53.84;99436.78;4915320;28;97974;-63
2021/01/12 10:30:12;;;;;;;1.10;0.50;;;;;;;11.49;54.00;99445.19;4921892;28;98214;-63
2021/01/12 10:32:41;;;;;;;0.80;0.30;;;;;;;11.52;54.03;99444.59;4917177;28;98354;-63
2021/01/12 10:35:08;;;;;;;0.85;0.40;;;;;;;11.54;53.89;99438.91;4919126;28;98019;-63
2021/01/12 10:37:34;;;;;;;1.00;0.30;;;;;;;11.54;53.96;99434.28;4913765;28;116655;-63
2021/01/12 10:40:00;;;;;;;1.65;0.43;;;;;;;11.55;53.99;99430.53;4894223;28;127921;-63
2021/01/12 10:42:26;;;;;;;0.93;0.40;;;;;;;11.60;54.12;99426.13;4920606;28;127481;-64
2021/01/12 10:44:52;;;;;;;1.40;0.40;;;;;;;11.61;54.25;99431.22;4924681;28;97695;-63
2021/01/12 10:47:18;;;;;;;0.98;0.50;;;;;;;11.62;54.35;99422.00;4921401;28;128694;-63
2021/01/12 10:49:44;;;;;;;1.13;0.40;;;;;;;11.64;54.39;99421.72;4904376;28;98819;-63
2021/01/12 10:52:11;;;;;;;1.67;0.40;;;;;;;11.66;54.23;99428.41;4919519;28;127242;-63
2021/01/12 10:54:37;;;;;;;1.00;0.40;;;;;;;11.70;54.06;99412.41;4921539;28;98198;-63
2021/01/12 10:57:06;;;;;;;1.00;0.40;;;;;;;11.70;54.15;99409.72;4922332;28;98479;-63
2021/01/12 10:59:32;;;;;;;1.10;0.57;;;;;;;11.69;54.85;99405.44;4914601;28;117875;-63
2021/01/12 11:02:03;;;;;;;1.55;0.50;;;;;;;11.68;54.37;99399.22;4920045;28;129205;-63
2021/01/12 11:04:29;;;;;;;1.30;0.50;;;;;;;11.68;54.77;99391.13;4922473;28;98299;-63
2021/01/12 11:06:56;;;;;;;1.48;0.60;;;;;;;11.67;54.99;99389.53;4915174;28;128439;-63
2021/01/12 11:09:28;;;;;;;1.60;0.50;;;;;;;11.65;55.20;99383.63;4920977;28;98643;-63
2021/01/12 11:12:00;;;;;;;1.30;0.65;;;;;;;11.66;54.22;99377.13;4922484;28;98416;-63
2021/01/12 11:14:26;;;;;;;1.83;0.50;;;;;;;11.71;54.68;99377.03;4922534;28;97836;-63
2021/01/12 11:16:53;;;;;;;1.35;0.60;;;;;;;11.71;54.60;99371.63;4920474;28;128825;-64
2021/01/12 11:19:19;;;;;;;1.55;0.70;;;;;;;11.71;54.37;99371.63;4921663;28;98277;-63
2021/01/12 11:21:47;;;;;;;1.33;0.50;;;;;;;11.68;54.71;99371.44;4902045;28;127417;-63
2021/01/12 11:24:15;;;;;;;1.30;0.50;;;;;;;11.65;54.48;99364.72;4913810;28;100344;-63
2021/01/12 11:26:42;;;;;;;1.52;0.50;;;;;;;11.64;54.41;99354.25;4903446;28;99286;-64
2021/01/12 11:29:08;;;;;;;1.88;0.50;;;;;;;11.66;54.73;99357.44;4913086;28;116742;-63
2021/01/12 11:31:34;;;;;;;1.67;0.60;;;;;;;11.67;54.86;99353.63;4921375;28;113528;-63